Emneth, United Kingdom
Current Conditions -  °F | °C
As of 5:50 AM on Sunday 21 Dec 2014 (Local Time) from EGYM Reporting Station
Broken Clouds Broken Clouds  
Wind Chill:   Ceiling: 2800
Heat Index:   Visibility: 6mi
Dew Point:   Wind: 13mph
Humidity: 87%   Direction: 210°SSW
Pressure: 30.3"   Gusts: NA
Location:  52.64°N, 0.21°E
Report Text: EGYM 210550Z AUTO 21011KT 9999 BKN028/// BKN037/// 06/04 Q1026
Loading
Personal Weather Stations






























Interactive Weather Map New forecast layout! Learn more

10-Day Weather Forecast

Advertisements
Track Severe Weather on mobile